Time;durP1;ratioP1;P1;durP2;ratioP2;P2;SDS_P1;SDS_P2;PMS_P1;PMS_P2;Temp;Humidity;BMP_temperature;BMP_pressure;BME280_temperature;BME280_humidity;BME280_pressure;Samples;Min_cycle;Max_cycle;Signal;HPM_P1;HPM_P2
2022/03/03 00:00:09;;;;;;;0.10;0.10;;;2.70;99.90;;;;;;5029183;28;20116;-72
2022/03/03 00:02:35;;;;;;;0.30;0.30;;;2.70;99.90;;;;;;5030062;28;20116;-71
2022/03/03 00:05:02;;;;;;;0.10;0.10;;;2.70;99.90;;;;;;5037072;28;20052;-72
2022/03/03 00:07:28;;;;;;;1.05;1.05;;;2.70;99.90;;;;;;5034379;28;20037;-72
2022/03/03 00:09:54;;;;;;;0.10;0.10;;;2.70;99.90;;;;;;5029510;28;20037;-70
2022/03/03 00:12:20;;;;;;;0.73;0.73;;;2.70;99.90;;;;;;5024231;28;20740;-72
2022/03/03 00:14:46;;;;;;;0.68;0.68;;;2.70;99.90;;;;;;5040984;28;20060;-72
2022/03/03 00:17:13;;;;;;;0.10;0.10;;;2.70;99.90;;;;;;5038587;28;20026;-71
2022/03/03 00:19:40;;;;;;;0.40;0.40;;;2.60;99.90;;;;;;5037519;28;20039;-72
2022/03/03 00:22:06;;;;;;;0.10;0.10;;;2.60;99.90;;;;;;5032470;28;20030;-71
2022/03/03 00:24:32;;;;;;;9.57;4.80;;;2.60;99.90;;;;;;5037174;28;20032;-71
2022/03/03 00:26:58;;;;;;;0.65;0.65;;;2.60;99.90;;;;;;5034923;28;20017;-71
2022/03/03 00:29:24;;;;;;;0.10;0.10;;;2.60;99.90;;;;;;5034687;28;20037;-71
2022/03/03 00:31:53;;;;;;;6.30;4.50;;;2.70;99.90;;;;;;5030139;28;20040;-72
2022/03/03 00:34:19;;;;;;;0.10;0.10;;;3.40;99.90;;;;;;5033835;28;20033;-72
2022/03/03 00:36:45;;;;;;;0.10;0.10;;;2.70;99.90;;;;;;5025359;28;20079;-71
2022/03/03 00:39:11;;;;;;;0.55;0.55;;;2.70;99.90;;;;;;5035964;28;20505;-72
2022/03/03 00:41:37;;;;;;;0.73;0.73;;;2.60;99.90;;;;;;5025906;28;20073;-71
2022/03/03 00:44:06;;;;;;;0.17;0.17;;;2.60;99.90;;;;;;5030084;28;20101;-73
2022/03/03 00:46:33;;;;;;;0.10;0.10;;;2.50;99.90;;;;;;5034314;28;20481;-72
2022/03/03 00:48:59;;;;;;;0.10;0.10;;;2.50;99.90;;;;;;5037713;28;20033;-72
2022/03/03 00:51:25;;;;;;;0.50;0.50;;;2.50;99.90;;;;;;5030921;28;20675;-78
2022/03/03 00:53:51;;;;;;;0.10;0.10;;;2.50;99.90;;;;;;5037879;28;20113;-78
2022/03/03 00:56:18;;;;;;;0.10;0.10;;;3.20;99.90;;;;;;5034068;28;20056;-71
2022/03/03 00:58:45;;;;;;;0.20;0.20;;;2.50;99.90;;;;;;5032047;28;20171;-72
2022/03/03 01:01:11;;;;;;;0.40;0.40;;;2.50;99.90;;;;;;5034069;28;20039;-72
2022/03/03 01:03:37;;;;;;;0.45;0.45;;;2.50;99.90;;;;;;5030594;28;20018;-71
2022/03/03 01:06:03;;;;;;;0.10;0.10;;;2.60;99.90;;;;;;5034081;28;20024;-72
2022/03/03 01:08:29;;;;;;;0.20;0.20;;;2.60;99.90;;;;;;5014627;28;20387;-73
2022/03/03 01:10:55;;;;;;;0.10;0.10;;;2.60;99.90;;;;;;5031696;28;20021;-72
2022/03/03 01:13:22;;;;;;;0.10;0.10;;;2.50;99.90;;;;;;5032455;28;20048;-75
2022/03/03 01:15:49;;;;;;;0.10;0.10;;;2.60;99.90;;;;;;5027760;28;20053;-72
2022/03/03 01:18:16;;;;;;;0.30;0.30;;;2.60;99.90;;;;;;5035326;28;20372;-72
2022/03/03 01:20:42;;;;;;;0.65;0.65;;;2.60;99.90;;;;;;5034427;28;20047;-72
2022/03/03 01:23:08;;;;;;;0.10;0.10;;;2.50;99.90;;;;;;5013074;28;20398;-71
2022/03/03 01:25:34;;;;;;;0.10;0.10;;;2.50;99.90;;;;;;5025994;28;20014;-74
2022/03/03 01:28:00;;;;;;;2.95;2.78;;;2.50;99.90;;;;;;5034167;28;20391;-72
2022/03/03 01:30:26;;;;;;;0.30;0.30;;;2.40;99.90;;;;;;5029428;28;20033;-72
2022/03/03 01:32:52;;;;;;;0.65;0.65;;;2.50;99.90;;;;;;5023267;28;20033;-73
2022/03/03 01:35:18;;;;;;;0.30;0.30;;;2.40;99.90;;;;;;5035593;28;20036;-72
2022/03/03 01:37:44;;;;;;;0.35;0.35;;;2.40;99.90;;;;;;5032468;28;20033;-72
2022/03/03 01:40:11;;;;;;;0.10;0.10;;;2.30;99.90;;;;;;5029380;28;20108;-72
2022/03/03 01:42:37;;;;;;;0.10;0.10;;;2.20;99.90;;;;;;5009396;28;20112;-72
2022/03/03 01:45:04;;;;;;;0.52;0.52;;;2.20;99.90;;;;;;5030762;28;20021;-72
2022/03/03 01:47:30;;;;;;;0.10;0.10;;;2.30;99.90;;;;;;5033706;28;20029;-73
2022/03/03 01:49:57;;;;;;;0.10;0.10;;;2.40;99.90;;;;;;5037361;28;20021;-71
2022/03/03 01:52:23;;;;;;;8.77;2.95;;;2.30;99.90;;;;;;5034603;28;20113;-71
2022/03/03 01:54:49;;;;;;;0.75;0.75;;;2.40;99.90;;;;;;5029716;28;20087;-72
2022/03/03 01:57:17;;;;;;;0.10;0.10;;;2.30;99.90;;;;;;5002172;28;20503;-74
2022/03/03 01:59:43;;;;;;;0.20;0.20;;;2.30;99.90;;;;;;5029765;28;20035;-71
2022/03/03 02:02:10;;;;;;;3.63;3.30;;;2.20;99.90;;;;;;5030044;28;20017;-73
2022/03/03 02:04:40;;;;;;;3.40;2.83;;;2.20;99.90;;;;;;5035632;28;20391;-72
2022/03/03 02:07:07;;;;;;;0.30;0.30;;;2.20;99.90;;;;;;5035976;28;20032;-72
2022/03/03 02:09:34;;;;;;;0.47;0.47;;;2.20;99.90;;;;;;5026082;28;20025;-71
2022/03/03 02:12:00;;;;;;;0.20;0.20;;;2.20;99.90;;;;;;5027799;28;20025;-72
2022/03/03 02:14:26;;;;;;;0.75;0.75;;;2.20;99.90;;;;;;5038435;28;20025;-72
2022/03/03 02:16:52;;;;;;;0.10;0.10;;;2.20;99.90;;;;;;5030415;28;20052;-72
2022/03/03 02:19:19;;;;;;;2.30;2.20;;;2.20;99.90;;;;;;5017146;28;20044;-73
2022/03/03 02:21:50;;;;;;;0.00;0.00;;;2.10;99.90;;;;;;5034625;28;20510;-72
2022/03/03 02:24:17;;;;;;;0.08;0.08;;;2.00;99.90;;;;;;5031727;28;20076;-72
2022/03/03 02:26:45;;;;;;;0.65;0.65;;;2.00;99.90;;;;;;5028731;28;20479;-72
2022/03/03 02:29:11;;;;;;;0.10;0.10;;;1.90;99.90;;;;;;5032595;28;20045;-72
2022/03/03 02:31:36;;;;;;;1.23;1.13;;;1.90;99.90;;;;;;5029927;28;20078;-73
2022/03/03 02:34:02;;;;;;;0.20;0.20;;;1.80;99.90;;;;;;5008568;28;20117;-72
2022/03/03 02:36:29;;;;;;;0.20;0.20;;;1.80;99.90;;;;;;5032597;28;20030;-72
2022/03/03 02:39:00;;;;;;;0.10;0.10;;;1.70;99.90;;;;;;5028083;28;20025;-72
2022/03/03 02:41:27;;;;;;;0.10;0.10;;;1.70;99.90;;;;;;5030965;28;20029;-71
2022/03/03 02:43:54;;;;;;;0.20;0.20;;;1.80;99.90;;;;;;5032179;28;20069;-70
2022/03/03 02:46:20;;;;;;;0.10;0.10;;;1.80;99.90;;;;;;5033165;28;20407;-72
2022/03/03 02:48:46;;;;;;;0.10;0.10;;;1.80;99.90;;;;;;5029885;28;20018;-72
2022/03/03 02:51:12;;;;;;;0.55;0.55;;;1.80;99.90;;;;;;5038538;28;20053;-72
2022/03/03 02:53:37;;;;;;;0.10;0.10;;;1.80;99.90;;;;;;5034046;28;20295;-71
2022/03/03 02:56:04;;;;;;;0.10;0.10;;;1.80;99.90;;;;;;5036367;28;20033;-72
2022/03/03 02:58:30;;;;;;;0.40;0.40;;;1.80;99.90;;;;;;5030052;28;20021;-71
2022/03/03 03:00:57;;;;;;;2.65;1.65;;;1.70;99.90;;;;;;5036190;28;20032;-72
2022/03/03 03:03:23;;;;;;;0.10;0.10;;;1.70;99.90;;;;;;5033998;28;20521;-71
2022/03/03 03:05:49;;;;;;;1.45;1.45;;;1.70;99.90;;;;;;5034614;28;20033;-72
2022/03/03 03:08:16;;;;;;;0.57;0.57;;;1.70;99.90;;;;;;5035771;28;20025;-72
2022/03/03 03:10:42;;;;;;;0.88;0.73;;;1.60;99.90;;;;;;5039188;28;20505;-71
2022/03/03 03:13:08;;;;;;;0.65;0.65;;;1.60;99.90;;;;;;5067884;22;20067;-64
2022/03/03 03:15:35;;;;;;;4.53;4.22;;;1.60;99.90;;;;;;5041228;28;20017;-64
2022/03/03 03:18:19;;;;;;;0.10;0.10;;;1.60;99.90;;;;;;5027638;28;20017;-64
2022/03/03 03:20:47;;;;;;;0.60;0.60;;;1.60;99.90;;;;;;5045063;28;20047;-64
2022/03/03 03:23:16;;;;;;;0.10;0.10;;;1.70;99.90;;;;;;5031132;28;20029;-64
2022/03/03 03:25:43;;;;;;;3.30;3.10;;;1.70;99.90;;;;;;5019388;28;20513;-63
2022/03/03 03:28:16;;;;;;;1.58;1.48;;;1.70;99.90;;;;;;5027915;28;20076;-64
2022/03/03 03:30:42;;;;;;;;;;;1.70;99.90;;;;;;5018646;28;20030;-64
2022/03/03 03:33:08;;;;;;;0.22;0.22;;;1.70;99.90;;;;;;5021465;28;19920;-64
2022/03/03 03:35:34;;;;;;;0.10;0.10;;;1.70;99.90;;;;;;5018838;28;20740;-64
2022/03/03 03:38:00;;;;;;;1.98;1.75;;;1.60;99.90;;;;;;5024375;28;20033;-63
2022/03/03 03:40:26;;;;;;;9.23;3.67;;;1.60;99.90;;;;;;5027132;28;20029;-63
2022/03/03 03:42:52;;;;;;;0.10;0.10;;;1.60;99.90;;;;;;5025596;28;20029;-64
2022/03/03 03:45:18;;;;;;;0.10;0.10;;;1.60;99.90;;;;;;5021554;28;20040;-64
2022/03/03 03:47:44;;;;;;;0.73;0.73;;;1.50;99.90;;;;;;5019854;28;20030;-64
2022/03/03 03:50:12;;;;;;;0.10;0.10;;;1.40;99.90;;;;;;4998906;28;20445;-64
2022/03/03 03:52:39;;;;;;;0.10;0.10;;;1.30;99.90;;;;;;5016177;28;20053;-64
2022/03/03 03:55:07;;;;;;;0.10;0.10;;;1.40;99.90;;;;;;5019948;28;20112;-63
2022/03/03 03:57:32;;;;;;;0.40;0.40;;;1.40;99.90;;;;;;5019660;28;20043;-64
2022/03/03 03:59:58;;;;;;;0.15;0.15;;;1.40;99.90;;;;;;5001638;28;20094;-64
2022/03/03 04:02:24;;;;;;;0.60;0.60;;;1.30;99.90;;;;;;5006478;28;20110;-65
2022/03/03 04:04:50;;;;;;;0.10;0.10;;;1.40;99.90;;;;;;5024487;28;20499;-64
2022/03/03 04:07:16;;;;;;;0.10;0.10;;;1.40;99.90;;;;;;5001812;28;20045;-63
2022/03/03 04:09:42;;;;;;;0.75;0.65;;;1.40;99.90;;;;;;5023402;28;20034;-63
2022/03/03 04:12:08;;;;;;;0.00;0.00;;;1.40;99.90;;;;;;5011942;28;20124;-63
2022/03/03 04:14:34;;;;;;;0.10;0.10;;;1.50;99.90;;;;;;5013011;28;20484;-63
2022/03/03 04:16:59;;;;;;;0.10;0.10;;;1.50;99.90;;;;;;5022631;28;20029;-63
2022/03/03 04:19:25;;;;;;;0.10;0.10;;;1.40;99.90;;;;;;5018440;28;20033;-63
2022/03/03 04:21:51;;;;;;;1.77;1.75;;;1.40;99.90;;;;;;5017370;28;20550;-64
2022/03/03 04:24:17;;;;;;;0.10;0.10;;;1.40;99.90;;;;;;5015139;28;20021;-64
2022/03/03 04:26:42;;;;;;;0.50;0.50;;;1.30;99.90;;;;;;5016309;28;20032;-64
2022/03/03 04:29:08;;;;;;;2.05;1.95;;;1.30;99.90;;;;;;5019027;28;20123;-64
2022/03/03 04:31:34;;;;;;;0.43;0.43;;;1.40;99.90;;;;;;5022114;28;20105;-64
2022/03/03 04:33:59;;;;;;;0.10;0.10;;;1.20;99.90;;;;;;5023332;28;20557;-64
2022/03/03 04:36:25;;;;;;;0.10;0.10;;;1.20;99.90;;;;;;5021520;28;20029;-64
2022/03/03 04:38:51;;;;;;;0.10;0.10;;;1.30;99.90;;;;;;5018326;28;20029;-63
2022/03/03 04:41:20;;;;;;;0.10;0.10;;;1.30;99.90;;;;;;5025444;28;20439;-64
2022/03/03 04:43:46;;;;;;;0.10;0.10;;;1.30;99.90;;;;;;5021210;28;22144;-64
2022/03/03 04:46:12;;;;;;;2.20;1.45;;;1.30;99.90;;;;;;5022751;28;20056;-63
2022/03/03 04:48:39;;;;;;;0.22;0.22;;;1.20;99.90;;;;;;5019520;28;20110;-64
2022/03/03 04:51:05;;;;;;;1.10;0.95;;;1.20;99.90;;;;;;5009255;28;20243;-64
2022/03/03 04:53:30;;;;;;;0.80;0.80;;;1.20;99.90;;;;;;5019688;28;20048;-64
2022/03/03 04:55:57;;;;;;;0.10;0.10;;;1.20;99.90;;;;;;5019896;28;20048;-64
2022/03/03 04:58:23;;;;;;;0.50;0.50;;;1.20;99.90;;;;;;5017677;28;20537;-63
2022/03/03 05:00:49;;;;;;;1.95;1.85;;;1.20;99.90;;;;;;5013410;28;20038;-64
2022/03/03 05:03:15;;;;;;;0.40;0.40;;;1.20;99.90;;;;;;5018228;28;20026;-63
2022/03/03 05:05:41;;;;;;;0.47;0.47;;;1.30;99.90;;;;;;5023229;28;20040;-64
2022/03/03 05:08:06;;;;;;;0.73;0.73;;;1.30;99.90;;;;;;5009087;28;20032;-64
2022/03/03 05:10:32;;;;;;;0.15;0.15;;;1.20;99.90;;;;;;5022435;28;20029;-63
2022/03/03 05:12:59;;;;;;;0.10;0.10;;;1.20;99.90;;;;;;5024307;28;20080;-64
2022/03/03 05:15:25;;;;;;;0.10;0.10;;;1.20;99.90;;;;;;5019953;28;20061;-64
2022/03/03 05:17:51;;;;;;;0.10;0.10;;;1.20;99.90;;;;;;5021336;28;20033;-64
2022/03/03 05:20:16;;;;;;;0.20;0.20;;;1.20;99.90;;;;;;5021902;28;20545;-63
2022/03/03 05:22:42;;;;;;;1.85;1.75;;;1.20;99.90;;;;;;5018092;28;20084;-63
2022/03/03 05:25:10;;;;;;;0.10;0.10;;;1.10;99.90;;;;;;5022092;28;20083;-64
2022/03/03 05:27:37;;;;;;;0.10;0.10;;;1.10;99.90;;;;;;5022807;28;20075;-64
2022/03/03 05:30:03;;;;;;;8.77;1.75;;;1.10;99.90;;;;;;5020956;28;20475;-64
2022/03/03 05:32:29;;;;;;;0.25;0.25;;;1.00;99.90;;;;;;5019015;28;20084;-64
2022/03/03 05:34:55;;;;;;;0.10;0.10;;;1.00;99.90;;;;;;5011314;28;20466;-63
2022/03/03 05:37:24;;;;;;;0.10;0.10;;;1.00;99.90;;;;;;5021481;28;20104;-64
2022/03/03 05:39:53;;;;;;;0.10;0.10;;;1.00;99.90;;;;;;5002567;28;20108;-64
2022/03/03 05:42:20;;;;;;;0.10;0.10;;;1.00;99.90;;;;;;5021614;28;20022;-64
2022/03/03 05:44:50;;;;;;;0.10;0.10;;;1.00;99.90;;;;;;5015746;28;20448;-69
2022/03/03 05:47:16;;;;;;;0.10;0.10;;;0.90;99.90;;;;;;5021306;28;20022;-64
2022/03/03 05:49:44;;;;;;;0.50;0.50;;;1.00;99.90;;;;;;5021692;28;20104;-64
2022/03/03 05:52:10;;;;;;;0.10;0.10;;;1.10;99.90;;;;;;5020240;28;20037;-64
2022/03/03 05:54:36;;;;;;;0.10;0.10;;;1.20;99.90;;;;;;5021320;28;20522;-64
2022/03/03 05:57:15;;;;;;;0.10;0.10;;;1.10;99.90;;;;;;5015332;28;20049;-64
2022/03/03 05:59:44;;;;;;;0.10;0.10;;;1.10;99.90;;;;;;5017961;28;20029;-65
2022/03/03 06:02:10;;;;;;;0.10;0.10;;;1.00;99.90;;;;;;5021931;28;20037;-65
2022/03/03 06:04:38;;;;;;;0.10;0.10;;;1.00;99.90;;;;;;5017905;28;20034;-64
2022/03/03 06:07:08;;;;;;;0.32;0.32;;;0.90;99.90;;;;;;4992365;28;20197;-66
2022/03/03 06:09:35;;;;;;;0.20;0.20;;;0.80;99.90;;;;;;5021267;28;20053;-64
2022/03/03 06:12:16;;;;;;;0.85;0.85;;;0.90;99.90;;;;;;5022479;28;20124;-64
2022/03/03 06:15:00;;;;;;;0.20;0.20;;;0.80;99.90;;;;;;5017709;28;20031;-64
2022/03/03 06:17:26;;;;;;;3.83;3.53;;;0.80;99.90;;;;;;5030557;28;20046;-63
2022/03/03 06:19:52;;;;;;;0.10;0.10;;;0.80;99.90;;;;;;5032405;28;20024;-63
2022/03/03 06:22:19;;;;;;;0.10;0.10;;;0.80;99.90;;;;;;5016167;28;20518;-63
2022/03/03 06:24:45;;;;;;;1.55;1.45;;;0.90;99.90;;;;;;5035433;28;20352;-64
2022/03/03 06:27:11;;;;;;;0.10;0.10;;;0.90;99.90;;;;;;5032009;28;20032;-60
2022/03/03 06:29:38;;;;;;;1.95;1.85;;;0.80;99.90;;;;;;5027171;28;20044;-63
2022/03/03 06:32:05;;;;;;;0.73;0.73;;;0.60;99.90;;;;;;5010738;28;20022;-59
2022/03/03 06:34:30;;;;;;;0.28;0.28;;;0.50;99.90;;;;;;5024375;28;20026;-63
2022/03/03 06:36:56;;;;;;;0.63;0.63;;;0.70;99.90;;;;;;5026936;28;20123;-65
2022/03/03 06:39:22;;;;;;;1.20;1.15;;;0.80;99.90;;;;;;5026316;28;20037;-63
2022/03/03 06:41:48;;;;;;;0.10;0.10;;;0.90;99.90;;;;;;5027931;28;20088;-64
2022/03/03 06:44:14;;;;;;;3.40;2.63;;;1.00;99.90;;;;;;5025873;28;20452;-64
2022/03/03 06:46:40;;;;;;;0.80;0.80;;;1.10;99.90;;;;;;5009941;28;20458;-64
2022/03/03 06:49:06;;;;;;;0.10;0.10;;;1.30;99.90;;;;;;5008607;28;20099;-64
2022/03/03 06:51:55;;;;;;;0.63;0.63;;;1.10;99.90;;;;;;5018287;28;20444;-64
2022/03/03 06:54:23;;;;;;;0.80;0.80;;;1.00;99.90;;;;;;5013696;28;20037;-64
2022/03/03 06:56:54;;;;;;;2.13;1.95;;;1.00;99.90;;;;;;5028955;28;20025;-64
2022/03/03 06:59:22;;;;;;;0.10;0.10;;;1.00;99.90;;;;;;5022155;28;20030;-65
2022/03/03 07:01:49;;;;;;;0.10;0.10;;;1.10;99.90;;;;;;5027340;28;20091;-65
2022/03/03 07:04:15;;;;;;;0.10;0.10;;;1.20;99.90;;;;;;5021985;28;20021;-65
2022/03/03 07:06:43;;;;;;;0.22;0.22;;;1.20;99.90;;;;;;5026682;28;20112;-65
2022/03/03 07:09:09;;;;;;;3.50;0.95;;;1.50;99.90;;;;;;5025441;28;20503;-65
2022/03/03 07:11:38;;;;;;;0.25;0.25;;;1.40;99.90;;;;;;5020528;28;20026;-65
2022/03/03 07:14:04;;;;;;;0.10;0.10;;;1.40;99.90;;;;;;5020158;28;20496;-64
2022/03/03 07:16:41;;;;;;;0.38;0.38;;;1.50;99.90;;;;;;5022506;28;20081;-64
2022/03/03 07:19:18;;;;;;;0.10;0.10;;;1.50;99.90;;;;;;5002653;28;20033;-64
2022/03/03 07:22:26;;;;;;;0.10;0.10;;;1.50;99.90;;;;;;5021635;28;20483;-63
2022/03/03 07:25:01;;;;;;;0.10;0.10;;;1.60;99.90;;;;;;5010882;28;20506;-67
2022/03/03 07:27:27;;;;;;;0.50;0.50;;;1.60;99.90;;;;;;5003281;28;20448;-64
2022/03/03 07:30:06;;;;;;;1.20;1.20;;;1.50;99.90;;;;;;5026323;28;20045;-65
2022/03/03 07:32:34;;;;;;;0.80;0.80;;;1.60;99.90;;;;;;5027705;28;20075;-64
2022/03/03 07:35:05;;;;;;;1.35;1.30;;;1.60;99.90;;;;;;5028822;28;20029;-64
2022/03/03 07:37:39;;;;;;;0.30;0.30;;;1.70;99.90;;;;;;5004893;28;20034;-63
2022/03/03 07:40:10;;;;;;;1.98;1.85;;;1.70;99.90;;;;;;5024095;28;20068;-65
2022/03/03 07:42:39;;;;;;;0.10;0.10;;;1.70;99.90;;;;;;5025843;28;20029;-64
2022/03/03 07:45:07;;;;;;;2.15;2.05;;;1.80;99.90;;;;;;5027060;28;20068;-65
2022/03/03 07:47:33;;;;;;;1.98;1.85;;;1.80;99.90;;;;;;5012719;28;20034;-65
2022/03/03 07:49:59;;;;;;;0.82;0.82;;;1.90;99.90;;;;;;5010120;28;20021;-65
2022/03/03 07:52:26;;;;;;;0.10;0.10;;;2.00;99.90;;;;;;5012249;28;20052;-64
2022/03/03 07:54:53;;;;;;;0.10;0.10;;;2.00;99.90;;;;;;5030609;28;20100;-65
2022/03/03 07:57:21;;;;;;;6.78;2.97;;;2.10;99.90;;;;;;5029882;28;20053;-65
2022/03/03 07:59:53;;;;;;;0.60;0.60;;;2.20;99.90;;;;;;5019499;28;20030;-67
2022/03/03 08:02:22;;;;;;;0.10;0.10;;;2.20;99.90;;;;;;5003334;28;20025;-65
2022/03/03 08:04:50;;;;;;;0.32;0.32;;;2.20;99.90;;;;;;5019469;28;20096;-65
2022/03/03 08:07:17;;;;;;;8.25;2.67;;;2.30;99.90;;;;;;5004373;28;20442;-64
2022/03/03 08:09:47;;;;;;;1.58;1.48;;;2.40;99.90;;;;;;5017864;28;20034;-65
2022/03/03 08:12:15;;;;;;;0.10;0.10;;;2.40;99.90;;;;;;5005186;28;20057;-65
2022/03/03 08:14:42;;;;;;;0.10;0.10;;;2.40;99.90;;;;;;5022185;28;20029;-65
2022/03/03 08:17:12;;;;;;;0.10;0.10;;;2.60;99.90;;;;;;5021129;28;20075;-66
2022/03/03 08:19:39;;;;;;;0.90;0.90;;;2.70;99.90;;;;;;5021905;28;20025;-65
2022/03/03 08:22:05;;;;;;;0.75;0.75;;;2.80;99.90;;;;;;5017841;28;21306;-65
2022/03/03 08:24:35;;;;;;;0.10;0.10;;;2.80;99.90;;;;;;5019883;28;20029;-64
2022/03/03 08:27:03;;;;;;;0.20;0.20;;;2.80;99.90;;;;;;5023826;28;20043;-64
2022/03/03 08:29:29;;;;;;;0.75;0.75;;;2.90;99.90;;;;;;5018196;28;20033;-65
2022/03/03 08:31:57;;;;;;;0.82;0.82;;;2.90;99.90;;;;;;5016174;28;20503;-65
2022/03/03 08:34:42;;;;;;;0.30;0.30;;;3.10;99.90;;;;;;5017188;28;20041;-65
2022/03/03 08:37:17;;;;;;;0.10;0.10;;;3.20;99.90;;;;;;5019348;28;20586;-65
2022/03/03 08:39:45;;;;;;;1.08;1.08;;;3.20;99.90;;;;;;5023773;28;20065;-66
2022/03/03 08:42:14;;;;;;;0.20;0.20;;;3.30;99.90;;;;;;5017540;28;20409;-65
2022/03/03 08:44:43;;;;;;;0.10;0.10;;;3.40;99.90;;;;;;5023760;28;20027;-65
2022/03/03 08:47:16;;;;;;;0.10;0.10;;;3.50;99.90;;;;;;5000524;28;20134;-64
2022/03/03 08:49:44;;;;;;;3.30;1.88;;;3.60;99.90;;;;;;5022827;28;20037;-64
2022/03/03 08:52:12;;;;;;;0.10;0.10;;;3.60;99.90;;;;;;5019252;28;20026;-65
2022/03/03 08:54:38;;;;;;;0.10;0.10;;;3.70;99.90;;;;;;5021770;28;20515;-66
2022/03/03 08:57:04;;;;;;;0.10;0.10;;;3.80;99.90;;;;;;5019754;28;20104;-65
2022/03/03 08:59:29;;;;;;;0.10;0.10;;;3.70;99.90;;;;;;5019563;28;20038;-65
2022/03/03 09:01:56;;;;;;;3.13;1.27;;;3.80;99.90;;;;;;5014330;28;20472;-65
2022/03/03 09:04:22;;;;;;;0.52;0.52;;;3.80;99.90;;;;;;5014362;28;20185;-64
2022/03/03 09:06:48;;;;;;;0.43;0.43;;;3.80;99.90;;;;;;5022531;28;20052;-64
2022/03/03 09:09:14;;;;;;;0.10;0.10;;;3.90;99.90;;;;;;5014134;28;20155;-65
2022/03/03 09:11:40;;;;;;;0.30;0.30;;;4.00;99.90;;;;;;5011162;28;20093;-63
2022/03/03 09:14:07;;;;;;;0.15;0.15;;;4.00;99.90;;;;;;5047709;23;20044;-71
2022/03/03 09:16:34;;;;;;;0.10;0.10;;;4.10;99.90;;;;;;5039390;28;20041;-73
2022/03/03 09:19:00;;;;;;;0.50;0.50;;;4.20;99.90;;;;;;5044576;28;20091;-73
2022/03/03 09:21:27;;;;;;;2.05;1.95;;;4.30;99.90;;;;;;5028677;28;20549;-73
2022/03/03 09:23:53;;;;;;;0.10;0.10;;;4.50;99.90;;;;;;5030142;28;20033;-74
2022/03/03 09:26:19;;;;;;;0.10;0.10;;;4.60;99.90;;;;;;5024128;28;20377;-74
2022/03/03 09:28:46;;;;;;;0.10;0.10;;;4.70;99.90;;;;;;5025625;28;20075;-72
2022/03/03 09:31:12;;;;;;;1.00;1.00;;;4.90;99.90;;;;;;5027565;28;20033;-72
2022/03/03 09:33:39;;;;;;;0.57;0.57;;;4.90;99.90;;;;;;5024843;28;20114;-72
2022/03/03 09:36:05;;;;;;;0.10;0.10;;;4.90;99.90;;;;;;5023012;28;20033;-72
2022/03/03 09:38:31;;;;;;;0.25;0.25;;;5.00;99.90;;;;;;5024905;28;20017;-70
2022/03/03 09:40:58;;;;;;;0.10;0.10;;;4.90;99.90;;;;;;5026128;28;20503;-72
2022/03/03 09:43:26;;;;;;;0.43;0.43;;;5.00;99.90;;;;;;5026520;28;20076;-71
2022/03/03 09:45:52;;;;;;;0.40;0.40;;;5.00;99.90;;;;;;5026107;28;20479;-73
2022/03/03 09:48:18;;;;;;;0.20;0.20;;;5.00;99.90;;;;;;5027248;28;20065;-73
2022/03/03 09:50:44;;;;;;;0.10;0.10;;;5.10;99.90;;;;;;5027540;28;20061;-75
2022/03/03 09:53:16;;;;;;;0.32;0.32;;;5.30;99.90;;;;;;5035778;28;20515;-74
2022/03/03 09:55:44;;;;;;;0.10;0.10;;;5.50;99.90;;;;;;5026053;28;20030;-73
2022/03/03 09:58:10;;;;;;;0.10;0.10;;;5.50;99.90;;;;;;5028661;28;20295;-73
2022/03/03 10:00:40;;;;;;;0.10;0.10;;;5.50;99.90;;;;;;5027301;28;20104;-71
2022/03/03 10:03:13;;;;;;;0.10;0.10;;;5.50;99.90;;;;;;5028078;28;20025;-75
2022/03/03 10:05:45;;;;;;;0.10;0.10;;;5.50;99.90;;;;;;5037268;28;20025;-75
2022/03/03 10:08:14;;;;;;;0.25;0.25;;;5.70;99.90;;;;;;5025484;28;20029;-73
2022/03/03 10:10:44;;;;;;;0.10;0.10;;;5.70;99.90;;;;;;5027931;28;20026;-73
2022/03/03 10:13:14;;;;;;;0.10;0.10;;;5.80;99.90;;;;;;5020257;28;20113;-76
2022/03/03 10:15:41;;;;;;;0.90;0.90;;;6.00;99.90;;;;;;5027903;28;20033;-73
2022/03/03 10:18:11;;;;;;;0.22;0.22;;;6.10;99.90;;;;;;5028336;28;20025;-74
2022/03/03 10:20:49;;;;;;;0.10;0.10;;;6.10;99.90;;;;;;5023902;28;20060;-74
2022/03/03 10:23:16;;;;;;;0.30;0.30;;;6.20;99.90;;;;;;5019998;28;20029;-75
2022/03/03 10:25:45;;;;;;;0.80;0.80;;;6.40;99.90;;;;;;5027991;28;20118;-76
2022/03/03 10:28:17;;;;;;;1.75;1.65;;;6.50;99.90;;;;;;5024211;28;20017;-75
2022/03/03 10:30:50;;;;;;;0.10;0.10;;;6.40;99.90;;;;;;5027205;28;20033;-72
2022/03/03 10:33:19;;;;;;;;;;;6.50;99.90;;;;;;5026072;28;20033;-75
2022/03/03 10:36:19;;;;;;;0.10;0.10;;;6.60;99.90;;;;;;5028847;28;19952;-73
2022/03/03 10:39:00;;;;;;;0.10;0.10;;;6.80;99.90;;;;;;4981352;28;20040;-71
2022/03/03 10:41:26;;;;;;;3.03;2.83;;;6.90;99.90;;;;;;5026328;28;20036;-70
2022/03/03 10:43:52;;;;;;;0.10;0.10;;;7.20;99.90;;;;;;5026707;28;20021;-71
2022/03/03 10:46:18;;;;;;;3.25;1.88;;;7.30;99.90;;;;;;5026205;28;20087;-71
2022/03/03 10:48:44;;;;;;;0.57;0.57;;;7.40;99.90;;;;;;5026107;28;20034;-71
2022/03/03 10:51:14;;;;;;;6.03;1.80;;;7.50;99.80;;;;;;5027023;28;20056;-70
2022/03/03 10:53:42;;;;;;;0.10;0.10;;;7.50;97.40;;;;;;5025201;28;20056;-73
2022/03/03 10:56:14;;;;;;;0.10;0.10;;;7.50;97.30;;;;;;5031300;28;20051;-75
2022/03/03 10:58:51;;;;;;;0.32;0.32;;;7.40;96.90;;;;;;5031229;28;20024;-73
2022/03/03 11:01:23;;;;;;;0.10;0.10;;;7.50;97.40;;;;;;5029551;28;20075;-72
2022/03/03 11:03:50;;;;;;;0.10;0.10;;;7.70;97.40;;;;;;5026910;28;20028;-73
2022/03/03 11:06:26;;;;;;;0.15;0.15;;;7.90;97.00;;;;;;5032399;28;20014;-71
2022/03/03 11:08:54;;;;;;;0.10;0.10;;;8.00;96.70;;;;;;5030898;28;20021;-72
2022/03/03 11:11:21;;;;;;;0.10;0.10;;;8.10;96.20;;;;;;5032426;28;20039;-72
2022/03/03 11:13:49;;;;;;;0.10;0.10;;;8.10;94.10;;;;;;5033831;28;20033;-75
2022/03/03 11:16:23;;;;;;;0.88;0.88;;;8.20;93.20;;;;;;5028417;28;20032;-76
2022/03/03 11:18:49;;;;;;;3.75;2.75;;;8.10;92.20;;;;;;5024969;28;20092;-72
2022/03/03 11:21:16;;;;;;;0.10;0.10;;;8.10;92.20;;;;;;5026845;28;20029;-71
2022/03/03 11:23:49;;;;;;;0.10;0.10;;;8.20;91.90;;;;;;5027286;28;20017;-73
2022/03/03 11:26:23;;;;;;;0.10;0.10;;;8.30;90.70;;;;;;5030630;28;20021;-73
2022/03/03 11:28:58;;;;;;;0.10;0.10;;;8.50;89.70;;;;;;5024157;28;20026;-74
2022/03/03 11:31:30;;;;;;;2.78;2.60;;;8.50;88.80;;;;;;5023782;28;21132;-72
2022/03/03 11:34:27;;;;;;;0.10;0.10;;;8.60;87.80;;;;;;5028196;28;20083;-73
2022/03/03 11:37:15;;;;;;;0.10;0.10;;;8.50;86.80;;;;;;5022632;28;20124;-72
2022/03/03 11:39:58;;;;;;;0.10;0.10;;;8.50;83.50;;;;;;5025128;28;20029;-72
2022/03/03 11:42:39;;;;;;;0.85;0.85;;;8.60;84.00;;;;;;5030070;28;20053;-73
2022/03/03 11:45:15;;;;;;;0.20;0.20;;;8.70;81.80;;;;;;5026458;28;20026;-71
2022/03/03 11:47:45;;;;;;;0.30;0.30;;;8.80;80.70;;;;;;5028158;28;20117;-74
2022/03/03 11:50:16;;;;;;;0.10;0.10;;;8.80;80.40;;;;;;5028174;28;20100;-74
2022/03/03 11:52:57;;;;;;;0.22;0.22;;;8.80;80.10;;;;;;5012096;28;20129;-72
2022/03/03 11:55:32;;;;;;;2.13;1.95;;;8.90;80.10;;;;;;5028060;28;20037;-72
2022/03/03 11:58:06;;;;;;;0.95;0.95;;;9.00;79.40;;;;;;5023978;28;20033;-72
2022/03/03 12:00:38;;;;;;;0.10;0.10;;;9.10;78.80;;;;;;5026422;28;20074;-72
2022/03/03 12:03:07;;;;;;;0.15;0.15;;;9.20;78.00;;;;;;5025605;28;20491;-71
2022/03/03 12:05:48;;;;;;;1.02;1.02;;;9.10;76.00;;;;;;5030505;28;20029;-72
2022/03/03 12:08:14;;;;;;;0.35;0.35;;;9.20;77.70;;;;;;5024205;28;20025;-73
2022/03/03 12:11:17;;;;;;;0.15;0.15;;;9.30;78.10;;;;;;5008845;28;20398;-74
2022/03/03 12:13:51;;;;;;;0.10;0.10;;;9.30;78.00;;;;;;4948007;28;20062;-73
2022/03/03 12:16:22;;;;;;;0.50;0.50;;;9.40;76.60;;;;;;5001838;28;20035;-73
2022/03/03 12:18:55;;;;;;;0.20;0.20;;;9.40;76.10;;;;;;5028016;28;20021;-76
2022/03/03 12:21:35;;;;;;;0.85;0.85;;;9.50;76.20;;;;;;5022274;28;20497;-72
2022/03/03 12:24:37;;;;;;;0.20;0.20;;;9.60;75.50;;;;;;5030210;28;20021;-70
2022/03/03 12:27:08;;;;;;;0.30;0.30;;;9.60;74.30;;;;;;5000983;28;20026;-71
2022/03/03 12:29:43;;;;;;;0.40;0.40;;;9.70;74.20;;;;;;5023502;28;20061;-73
2022/03/03 12:32:38;;;;;;;0.10;0.10;;;9.70;73.90;;;;;;5029622;28;20033;-72
2022/03/03 12:35:29;;;;;;;0.45;0.45;;;9.60;73.70;;;;;;5023942;28;20051;-73
2022/03/03 12:37:59;;;;;;;7.28;6.72;;;9.60;73.90;;;;;;5024824;28;20021;-72
2022/03/03 12:40:28;;;;;;;0.10;0.10;;;9.70;72.80;;;;;;5028066;28;20053;-72
2022/03/03 12:42:55;;;;;;;1.33;1.30;;;9.70;73.90;;;;;;5025980;28;20029;-72
2022/03/03 12:45:22;;;;;;;1.27;1.08;;;9.70;72.40;;;;;;5019404;28;20025;-70
2022/03/03 12:47:54;;;;;;;0.10;0.10;;;9.80;71.10;;;;;;5018518;28;20104;-69
2022/03/03 12:50:26;;;;;;;0.20;0.20;;;9.80;72.00;;;;;;5022518;28;20033;-71
2022/03/03 12:52:56;;;;;;;0.20;0.20;;;9.80;72.10;;;;;;5022654;28;20030;-78
2022/03/03 12:55:30;;;;;;;0.82;0.82;;;9.70;71.90;;;;;;5026447;28;20029;-71
2022/03/03 12:57:57;;;;;;;0.10;0.10;;;9.80;72.90;;;;;;5018421;28;20096;-72
2022/03/03 13:00:24;;;;;;;0.15;0.15;;;9.90;73.30;;;;;;5017653;28;20038;-72
2022/03/03 13:02:56;;;;;;;0.88;0.88;;;10.00;71.20;;;;;;5019964;28;20517;-74
2022/03/03 13:05:38;;;;;;;1.58;1.50;;;10.10;71.10;;;;;;5020589;28;20111;-73